Rawlinsville, Pennsylvania
Current Conditions -  °F | °C
As of 1:53 PM on Tuesday 27 Jan 2015 (Local Time) from KLNS Reporting Station
Broken Clouds Broken Clouds  
Wind Chill: 18°   Ceiling: 6500
Heat Index: 29°   Visibility: 10mi
Dew Point: 14°   Wind: 14mph
Humidity: 54%   Direction: 300°WNW
Pressure: 29.76"   Gusts: NA
Location:  39.8592°N, 76.2955°W
Report Text: KLNS 271853Z 30012KT 10SM BKN065 M02/M10 A2976 RMK AO2 SLP083 T10171100
Loading
Personal Weather Stations






























Interactive Weather Map New forecast layout! Learn more

10-Day Weather Forecast

Advertisements
Track Severe Weather on mobile